AirNav   ATP
 
 323 users online  

2KY0 Jane Todd Crawford Hospital Heliport
Greensburg, Kentucky, USA

GOING TO GREENSBURG?


FAA INFORMATION EFFECTIVE 20 JULY 2017

Location

FAA Identifier: 2KY0
Lat/Long: 37-14-35.7600N / 085-29-34.8700W
37-14.596000N / 085-29.581167W
37.2432667 / -85.4930194
(estimated)
Elevation: 625 ft. / 190 m (estimated)
Variation: 03W (1995)
From city: 1 mile SE of GREENSBURG, KY
Time zone: UTC -5 (UTC -6 during Standard Time)
Zip code: 42743

Heliport Operations

Heliport use: Private use, MEDICAL USE.
Activation date: 06/1998
Control tower: no
ARTCC: INDIANAPOLIS CENTER
FSS: LOUISVILLE FLIGHT SERVICE STATION
Attendance: UNATNDD
Wind indicator: lighted
Segmented circle: no

Heliport Communications

WX AWOS-3 at AAS (11 nm NE): 121.125 (270-789-1985)

Nearby radio navigation aids

VOR radial/distance  VOR name  Freq  Var
EWOr159/24.9NEW HOPE VOR/DME110.8001E

Heliport Services

Runway Information

Helipad H1

Dimensions: 24 x 24 ft. / 7 x 7 m
Surface: concrete
Latitude: 37-14.596000N
Longitude: 085-29.581167W
Elevation: 625.0 ft.
Traffic pattern: leftleft

Heliport Ownership and Management from official FAA records

Ownership: Privately-owned
Owner: JANE TODD CRAWFORD HOSPITAL
202-206 MILBY STREET
GREENSBURG, KY 42743
Phone 270-932-4211
Manager: HENRY SHUFFETT
PO BOX 313
GREENSBURG, KY 42743
Phone 270-405-1299

Heliport Operational Statistics

Aircraft based on the field: 1
Helicopters: 1
    

Additional Remarks

A52-H1 25 FT POWER LINES 105 FT SSE; 40 FT TREES 110 FT N; 130 FT ANT TWR 350 YARDS W.

Instrument Procedures

There are no published instrument procedures at 2KY0.

Some nearby airports with instrument procedures:

KAAS - Taylor County Airport (11 nm NE)
K24 - Russell County Airport (23 nm SE)
KGLW - Glasgow Municipal Airport (25 nm SW)
6I2 - Lebanon Springfield Airport-George Hoerter Field (26 nm NE)
KTZV - Tompkinsville-Monroe County Airport (32 nm S)
 
Loc | Ops | Rwys | IFR | FBO | Links
Com | Nav | Svcs | Stats | Notes


 
Area around 2KY0 (Jane Todd Crawford Hospital Heliport)
 
Road maps at: MapQuest Bing Google
 
Aerial photo
No photo
 
Sectional chart

 
Airport distance calculator
Flying to Jane Todd Crawford Hospital Heliport? Find the distance to fly.

From to 2KY0

Sunrise and sunset
Times for 22-Jul-2017
 Local
(UTC-5)
 Zulu
(UTC)
Morning civil twilight05:1010:10
Sunrise05:4010:40
Sunset19:5700:57
Evening civil twilight20:2701:27

Current date and time
Zulu (UTC)  22-Jul-2017 10:05:37
Local (UTC-5)  22-Jul-2017 05:05:37
 
METAR
KGLW 
25nm SW 
220930Z AUTO 00000KT 7SM CLR 24/24 A2996 RMK AO2 T02420242
K6I2 
26nm NE 
220955Z AUTO 18006KT 9SM CLR 25/23 A2996 RMK AO2
KEKX 
34nm NW 
220955Z AUTO 00000KT 10SM CLR 24/24 A2994 RMK AO2 T02380236
KEKQ 
38nm SE 
220956Z AUTO 03006KT 5SM BR CLR 22/21 A3000 RMK AO2 SLP163 T02170211
KDVK 
40nm NE 
220955Z AUTO 20004KT 10SM CLR 23/22 A2998 RMK AO2
KSME 
43nm E 
220955Z AUTO 00000KT 7SM CLR 21/21 A2999 RMK AO2
KFTK 
45nm NW 
220958Z AUTO 21003KT 10SM CLR 25/23 A2993 RMK AO2 SLP129 T02450234
KBWG 
47nm W 
220953Z AUTO 22004KT 9SM CLR 27/25 A2995 RMK AO2 SLP135 T02670250
TAF
KSME 
43nm E 
220541Z 2206/2306 VRB03KT P6SM SKC FM220900 VRB03KT 3SM BR SKC FM221400 VRB05KT P6SM FEW035 SCT200
KFTK 
45nm NW 
220100Z 2201/2307 28009KT 9999 SKC QNH2990INS BECMG 2213/2214 26012G18KT 9999 FEW035 BKN050 QNH2980INS BECMG 2300/2301 26010KT 9999 FEW035 BKN050 QNH2980INS TX36/2221Z TN25/2210Z
KBWG 
47nm W 
220520Z 2206/2306 00000KT P6SM FEW050 FM221500 23009KT P6SM FEW040
NOTAMs
Click for the latest NOTAMs
NOTAMs are issued by the DoD/FAA and will open in a separate window not controlled by AirNav.

 

 
 

Would you like to see your business listed on this page?

 If your business provides an interesting product or service to pilots, flight crews, aircraft, or users of the Jane Todd Crawford Hospital Heliport, you should consider listing it here.  To start the listing process, click on the button below
 
Add a business
 

Other Pages about Jane Todd Crawford Hospital Heliport

Update a link
 
Copyright © AirNav, LLC. All rights reserved. Privacy Policy  Contact